Katie Gonsoulin — WDD4496 — position and weather

sailwx.info

Track history (hours):
 
Tides and Currents Weather Stations Pressure Air Temp Water Temp Dewpoint Dewpoint Depression Visibility Wind Speed Wind Dir Waves Ship Positions

Katie Gonsoulin

Owner: LeBeouf Bros. Towing, LLC, Houma, LA. More information available from US FCC via Universal Licensing System and Coast Guard Vessel Documentation Center.

Last reported at 2018-Jun-03 18:28 UTC. Time now 2018-Jun-21 16:19 UTC.
Position N 29°50' W 091°58'.
Warning: this ship's position is 17 days out of date.

Length 22 m; draft 3 m.

Type: Towing. MMSI: 367145440.

Date/timePositionNaut miles runAvg speedWind from/ knotsBaromVisibWave heightAir tempDewpointWater temp
2018-Jun-03 18:28N 29°50' W 091°58'2 4.5
2018-Jun-03 18:01N 29°50' W 091°60'2 4.6
2018-Jun-03 17:31N 29°49' W 092°02'2 4.7
2018-Jun-03 16:59N 29°48' W 092°05'2 4.8
2018-Jun-03 16:30N 29°47' W 092°07'2 4.4
2018-Jun-03 16:00N 29°47' W 092°10'2 3.6
2018-Jun-03 15:30N 29°47' W 092°12'1 1.6
2018-Jun-03 15:00N 29°47' W 092°13'1 2.7
2018-Jun-03 14:29N 29°48' W 092°14'0 0.1
2018-Jun-03 14:00N 29°48' W 092°14'0 0.0
2018-Jun-03 13:26N 29°48' W 092°14'0 0.3
2018-Jun-03 13:00N 29°48' W 092°14'0 0.0
2018-Jun-03 12:30N 29°48' W 092°14'0 0.0
2018-Jun-03 12:00N 29°48' W 092°14'1 1.1
2018-Jun-03 11:30N 29°48' W 092°15'0 0.0
2018-Jun-03 11:00N 29°48' W 092°15'0 0.0
2018-Jun-03 10:30N 29°48' W 092°15'0 0.6
2018-Jun-03 10:00N 29°48' W 092°15'0 0.4
2018-Jun-03 09:30N 29°48' W 092°16'0 0.0
2018-Jun-03 09:00N 29°48' W 092°16'1 1.1
2018-Jun-03 08:30N 29°49' W 092°16'2 3.7
2018-Jun-03 08:00N 29°50' W 092°18'2 3.5
2018-Jun-03 07:30N 29°50' W 092°20'39 4.0
2018-Jun-02 21:48N 29°56' W 093°04'1 4.3
2018-Jun-02 21:28N 29°56' W 093°06'2 4.5
2018-Jun-02 21:00N 29°56' W 093°08'2 4.1
2018-Jun-02 20:30N 29°57' W 093°10'2 4.5
2018-Jun-02 20:00N 29°59' W 093°12'2 4.4
2018-Jun-02 19:30N 30°00' W 093°14'2 3.5
2018-Jun-02 19:00N 30°02' W 093°14'2 3.2
2018-Jun-02 18:30N 30°03' W 093°16'2 3.9
2018-Jun-02 18:00N 30°05' W 093°17'1 2.3
2018-Jun-02 17:30N 30°05' W 093°18'1 2.1
2018-Jun-02 17:00N 30°06' W 093°18'0 0.1
2018-Jun-02 16:30N 30°06' W 093°18'0 0.1
2018-Jun-02 16:00N 30°06' W 093°18'2 3.1
2018-Jun-02 15:30N 30°05' W 093°20'2 3.8
2018-Jun-02 15:00N 30°04' W 093°21'2 4.1
2018-Jun-02 14:30N 30°04' W 093°23'2 4.7
2018-Jun-02 14:00N 30°04' W 093°26'2 4.8
2018-Jun-02 13:30N 30°04' W 093°29'3 4.9
2018-Jun-02 12:56N 30°04' W 093°32'3 4.9
2018-Jun-02 12:15N 30°04' W 093°36'3 4.9
2018-Jun-02 11:37N 30°04' W 093°40'1 5.0
2018-Jun-02 11:28N 30°04' W 093°40'2 4.7
2018-Jun-02 10:58N 30°03' W 093°43'2 4.9
2018-Jun-02 10:30N 30°01' W 093°45'3 5.0
2018-Jun-02 10:00N 29°60' W 093°47'3 5.0
2018-Jun-02 09:30N 29°59' W 093°49'2 4.1
2018-Jun-02 09:00N 29°58' W 093°51'2 4.6
2018-Jun-02 08:30N 29°56' W 093°53'2 4.5
2018-Jun-02 08:00N 29°54' W 093°54'2 3.6
2018-Jun-02 07:30N 29°52' W 093°56'2 4.0
2018-Jun-02 07:00N 29°51' W 093°57'2 3.9
2018-Jun-02 06:30N 29°49' W 093°58'2 4.6
2018-Jun-02 06:01N 29°48' W 094°00'3 5.5
2018-Jun-02 05:30N 29°46' W 094°03'3 5.5
2018-Jun-02 05:00N 29°44' W 094°05'3 5.4
2018-Jun-02 04:30N 29°43' W 094°08'4 5.1
2018-Jun-02 03:47N 29°41' W 094°11'2 5.2
2018-Jun-02 03:30N 29°40' W 094°13'35 2.6
2018-Jun-01 13:50N 29°29' W 094°52'2 5.2
2018-Jun-01 13:30N 29°31' W 094°53'2 5.0
2018-Jun-01 13:00N 29°33' W 094°54'3 5.7
2018-Jun-01 12:30N 29°35' W 094°56'3 5.8
2018-Jun-01 12:00N 29°38' W 094°58'3 6.0
2018-Jun-01 11:30N 29°40' W 094°59'3 5.2
2018-Jun-01 11:00N 29°42' W 095°01'8 0.3
2018-May-31 10:32N 29°45' W 095°10'1 6.4
2018-May-31 10:26N 29°44' W 095°09'5 5.6
2018-May-31 09:35N 29°46' W 095°04'1 6.6
2018-May-31 09:24N 29°44' W 095°04'3 5.6
2018-May-31 08:58N 29°43' W 095°01'2 1.0
2018-May-31 07:23N 29°42' W 095°03'0 0.0
2018-May-31 07:00N 29°42' W 095°03'0 0.0
2018-May-30 20:50N 29°42' W 095°03'0 0.0
2018-May-30 20:30N 29°42' W 095°03'0 0.0
2018-May-30 19:59N 29°42' W 095°03'0 0.0
2018-May-30 19:30N 29°42' W 095°03'0 0.0
2018-May-30 18:57N 29°42' W 095°03'0 0.0
2018-May-30 18:27N 29°42' W 095°03'0 0.0
2018-May-30 17:53N 29°42' W 095°03'0 0.0
2018-May-30 17:30N 29°42' W 095°03'0 0.0
2018-May-30 16:54N 29°42' W 095°03'0 0.0
2018-May-30 16:12N 29°42' W 095°03'0 0.0
2018-May-30 15:59N 29°42' W 095°03'0 0.0
2018-May-30 14:44N 29°42' W 095°03'0 0.0
2018-May-30 10:06N 29°42' W 095°03'0 0.0
2018-May-30 09:56N 29°42' W 095°03'0 0.0
2018-May-30 07:59N 29°42' W 095°03'0 0.0
2018-May-30 06:56N 29°42' W 095°03'0 0.0
2018-May-30 06:30N 29°42' W 095°03'0 0.0
2018-May-30 06:00N 29°42' W 095°03'0 0.0
2018-May-30 05:28N 29°42' W 095°03'0 0.0
2018-May-30 05:00N 29°42' W 095°03'0 0.0
2018-May-30 04:30N 29°42' W 095°03'0 0.0
2018-May-30 04:00N 29°42' W 095°03'0 0.0
2018-May-30 03:30N 29°42' W 095°03'0 0.0
2018-May-30 02:57N 29°42' W 095°03'0 0.0
2018-May-30 02:27N 29°42' W 095°03'0 0.0
2018-May-30 01:18N 29°42' W 095°03'0 0.0
2018-May-29 13:39N 29°42' W 095°03'0 0.0
2018-May-29 13:28N 29°42' W 095°03'0 0.0
2018-May-29 13:00N 29°42' W 095°03'0 0.0
2018-May-29 12:29N 29°42' W 095°03'0 0.0
2018-May-29 12:00N 29°42' W 095°03'0 0.0
2018-May-29 11:30N 29°42' W 095°03'0 0.0
2018-May-29 10:58N 29°42' W 095°03'0 0.0
2018-May-29 10:30N 29°42' W 095°03'0 0.0
2018-May-29 10:00N 29°42' W 095°03'0 0.0
2018-May-29 09:30N 29°42' W 095°03'0 0.0
2018-May-29 09:00N 29°42' W 095°03'0 0.0
2018-May-29 08:29N 29°42' W 095°03'0 0.0
2018-May-29 07:59N 29°42' W 095°03'0 0.0
2018-May-29 07:29N 29°42' W 095°03'0 0.0
2018-May-29 07:00N 29°42' W 095°03'0 0.0
2018-May-29 06:30N 29°42' W 095°03'0 0.0
2018-May-29 05:11N 29°42' W 095°03'0 0.0
2018-May-28 13:46N 29°42' W 095°03'0 0.1
2018-May-28 12:12N 29°42' W 095°03'0 0.0
2018-May-28 12:00N 29°42' W 095°03'0 0.0
2018-May-28 00:03N 29°42' W 095°03'0 0.0
2018-May-27 23:55N 29°42' W 095°03'0 0.0
2018-May-27 18:43N 29°42' W 095°03'0 0.0
2018-May-27 18:28N 29°42' W 095°03'0 0.0
2018-May-27 17:51N 29°42' W 095°03'0 0.0
2018-May-27 17:21N 29°42' W 095°03'0 0.0
2018-May-27 16:26N 29°42' W 095°03'0 0.0
2018-May-27 15:47N 29°42' W 095°03'0 0.0
2018-May-27 15:30N 29°42' W 095°03'0 0.0
2018-May-27 14:13N 29°42' W 095°03'0 0.0
2018-May-27 13:54N 29°42' W 095°03'0 0.0
2018-May-27 13:27N 29°42' W 095°03'0 0.0
2018-May-27 12:58N 29°42' W 095°03'0 0.0
2018-May-27 09:04N 29°42' W 095°03'0 0.0
2018-May-27 03:18N 29°42' W 095°03'0 0.0
2018-May-27 02:40N 29°42' W 095°03'  
Track history (hours):
 
Tides and Currents Weather Stations Pressure Air Temp Water Temp Dewpoint Dewpoint Depression Visibility Wind Speed Wind Dir Waves Ship Positions

Katie Gonsoulin

Owner: LeBeouf Bros. Towing, LLC, Houma, LA. More information available from US FCC via Universal Licensing System and Coast Guard Vessel Documentation Center.

Last reported at 2018-Jun-03 18:28 UTC. Time now 2018-Jun-21 16:19 UTC.
Position N 29°50' W 091°58'.
Warning: this ship's position is 17 days out of date.

Length 22 m; draft 3 m.

Type: Towing. MMSI: 367145440.

Date/timePositionNaut miles runAvg speedWind from/ knotsBaromVisibWave heightAir tempDewpointWater temp
2018-Jun-03 18:28N 29°50' W 091°58'2 4.5
2018-Jun-03 18:01N 29°50' W 091°60'2 4.6
2018-Jun-03 17:31N 29°49' W 092°02'2 4.7
2018-Jun-03 16:59N 29°48' W 092°05'2 4.8
2018-Jun-03 16:30N 29°47' W 092°07'2 4.4
2018-Jun-03 16:00N 29°47' W 092°10'2 3.6
2018-Jun-03 15:30N 29°47' W 092°12'1 1.6
2018-Jun-03 15:00N 29°47' W 092°13'1 2.7
2018-Jun-03 14:29N 29°48' W 092°14'0 0.1
2018-Jun-03 14:00N 29°48' W 092°14'0 0.0
2018-Jun-03 13:26N 29°48' W 092°14'0 0.3
2018-Jun-03 13:00N 29°48' W 092°14'0 0.0
2018-Jun-03 12:30N 29°48' W 092°14'0 0.0
2018-Jun-03 12:00N 29°48' W 092°14'1 1.1
2018-Jun-03 11:30N 29°48' W 092°15'0 0.0
2018-Jun-03 11:00N 29°48' W 092°15'0 0.0
2018-Jun-03 10:30N 29°48' W 092°15'0 0.6
2018-Jun-03 10:00N 29°48' W 092°15'0 0.4
2018-Jun-03 09:30N 29°48' W 092°16'0 0.0
2018-Jun-03 09:00N 29°48' W 092°16'1 1.1
2018-Jun-03 08:30N 29°49' W 092°16'2 3.7
2018-Jun-03 08:00N 29°50' W 092°18'2 3.5
2018-Jun-03 07:30N 29°50' W 092°20'39 4.0
2018-Jun-02 21:48N 29°56' W 093°04'1 4.3
2018-Jun-02 21:28N 29°56' W 093°06'2 4.5
2018-Jun-02 21:00N 29°56' W 093°08'2 4.1
2018-Jun-02 20:30N 29°57' W 093°10'2 4.5
2018-Jun-02 20:00N 29°59' W 093°12'2 4.4
2018-Jun-02 19:30N 30°00' W 093°14'2 3.5
2018-Jun-02 19:00N 30°02' W 093°14'2 3.2
2018-Jun-02 18:30N 30°03' W 093°16'2 3.9
2018-Jun-02 18:00N 30°05' W 093°17'1 2.3
2018-Jun-02 17:30N 30°05' W 093°18'1 2.1
2018-Jun-02 17:00N 30°06' W 093°18'0 0.1
2018-Jun-02 16:30N 30°06' W 093°18'0 0.1
2018-Jun-02 16:00N 30°06' W 093°18'2 3.1
2018-Jun-02 15:30N 30°05' W 093°20'2 3.8
2018-Jun-02 15:00N 30°04' W 093°21'2 4.1
2018-Jun-02 14:30N 30°04' W 093°23'2 4.7
2018-Jun-02 14:00N 30°04' W 093°26'2 4.8
2018-Jun-02 13:30N 30°04' W 093°29'3 4.9
2018-Jun-02 12:56N 30°04' W 093°32'3 4.9
2018-Jun-02 12:15N 30°04' W 093°36'3 4.9
2018-Jun-02 11:37N 30°04' W 093°40'1 5.0
2018-Jun-02 11:28N 30°04' W 093°40'2 4.7
2018-Jun-02 10:58N 30°03' W 093°43'2 4.9
2018-Jun-02 10:30N 30°01' W 093°45'3 5.0
2018-Jun-02 10:00N 29°60' W 093°47'3 5.0
2018-Jun-02 09:30N 29°59' W 093°49'2 4.1
2018-Jun-02 09:00N 29°58' W 093°51'2 4.6
2018-Jun-02 08:30N 29°56' W 093°53'2 4.5
2018-Jun-02 08:00N 29°54' W 093°54'2 3.6
2018-Jun-02 07:30N 29°52' W 093°56'2 4.0
2018-Jun-02 07:00N 29°51' W 093°57'2 3.9
2018-Jun-02 06:30N 29°49' W 093°58'2 4.6
2018-Jun-02 06:01N 29°48' W 094°00'3 5.5
2018-Jun-02 05:30N 29°46' W 094°03'3 5.5
2018-Jun-02 05:00N 29°44' W 094°05'3 5.4
2018-Jun-02 04:30N 29°43' W 094°08'4 5.1
2018-Jun-02 03:47N 29°41' W 094°11'2 5.2
2018-Jun-02 03:30N 29°40' W 094°13'35 2.6
2018-Jun-01 13:50N 29°29' W 094°52'2 5.2
2018-Jun-01 13:30N 29°31' W 094°53'2 5.0
2018-Jun-01 13:00N 29°33' W 094°54'3 5.7
2018-Jun-01 12:30N 29°35' W 094°56'3 5.8
2018-Jun-01 12:00N 29°38' W 094°58'3 6.0
2018-Jun-01 11:30N 29°40' W 094°59'3 5.2
2018-Jun-01 11:00N 29°42' W 095°01'8 0.3
2018-May-31 10:32N 29°45' W 095°10'1 6.4
2018-May-31 10:26N 29°44' W 095°09'5 5.6
2018-May-31 09:35N 29°46' W 095°04'1 6.6
2018-May-31 09:24N 29°44' W 095°04'3 5.6
2018-May-31 08:58N 29°43' W 095°01'2 1.0
2018-May-31 07:23N 29°42' W 095°03'0 0.0
2018-May-31 07:00N 29°42' W 095°03'0 0.0
2018-May-30 20:50N 29°42' W 095°03'0 0.0
2018-May-30 20:30N 29°42' W 095°03'0 0.0
2018-May-30 19:59N 29°42' W 095°03'0 0.0
2018-May-30 19:30N 29°42' W 095°03'0 0.0
2018-May-30 18:57N 29°42' W 095°03'0 0.0
2018-May-30 18:27N 29°42' W 095°03'0 0.0
2018-May-30 17:53N 29°42' W 095°03'0 0.0
2018-May-30 17:30N 29°42' W 095°03'0 0.0
2018-May-30 16:54N 29°42' W 095°03'0 0.0
2018-May-30 16:12N 29°42' W 095°03'0 0.0
2018-May-30 15:59N 29°42' W 095°03'0 0.0
2018-May-30 14:44N 29°42' W 095°03'0 0.0
2018-May-30 10:06N 29°42' W 095°03'0 0.0
2018-May-30 09:56N 29°42' W 095°03'0 0.0
2018-May-30 07:59N 29°42' W 095°03'0 0.0
2018-May-30 06:56N 29°42' W 095°03'0 0.0
2018-May-30 06:30N 29°42' W 095°03'0 0.0
2018-May-30 06:00N 29°42' W 095°03'0 0.0
2018-May-30 05:28N 29°42' W 095°03'0 0.0
2018-May-30 05:00N 29°42' W 095°03'0 0.0
2018-May-30 04:30N 29°42' W 095°03'0 0.0
2018-May-30 04:00N 29°42' W 095°03'0 0.0
2018-May-30 03:30N 29°42' W 095°03'0 0.0
2018-May-30 02:57N 29°42' W 095°03'0 0.0
2018-May-30 02:27N 29°42' W 095°03'0 0.0
2018-May-30 01:18N 29°42' W 095°03'0 0.0
2018-May-29 13:39N 29°42' W 095°03'0 0.0
2018-May-29 13:28N 29°42' W 095°03'0 0.0
2018-May-29 13:00N 29°42' W 095°03'0 0.0
2018-May-29 12:29N 29°42' W 095°03'0 0.0
2018-May-29 12:00N 29°42' W 095°03'0 0.0
2018-May-29 11:30N 29°42' W 095°03'0 0.0
2018-May-29 10:58N 29°42' W 095°03'0 0.0
2018-May-29 10:30N 29°42' W 095°03'0 0.0
2018-May-29 10:00N 29°42' W 095°03'0 0.0
2018-May-29 09:30N 29°42' W 095°03'0 0.0
2018-May-29 09:00N 29°42' W 095°03'0 0.0
2018-May-29 08:29N 29°42' W 095°03'0 0.0
2018-May-29 07:59N 29°42' W 095°03'0 0.0
2018-May-29 07:29N 29°42' W 095°03'0 0.0
2018-May-29 07:00N 29°42' W 095°03'0 0.0
2018-May-29 06:30N 29°42' W 095°03'0 0.0
2018-May-29 05:11N 29°42' W 095°03'0 0.0
2018-May-28 13:46N 29°42' W 095°03'0 0.1
2018-May-28 12:12N 29°42' W 095°03'0 0.0
2018-May-28 12:00N 29°42' W 095°03'0 0.0
2018-May-28 00:03N 29°42' W 095°03'0 0.0
2018-May-27 23:55N 29°42' W 095°03'0 0.0
2018-May-27 18:43N 29°42' W 095°03'0 0.0
2018-May-27 18:28N 29°42' W 095°03'0 0.0
2018-May-27 17:51N 29°42' W 095°03'0 0.0
2018-May-27 17:21N 29°42' W 095°03'0 0.0
2018-May-27 16:26N 29°42' W 095°03'0 0.0
2018-May-27 15:47N 29°42' W 095°03'0 0.0
2018-May-27 15:30N 29°42' W 095°03'0 0.0
2018-May-27 14:13N 29°42' W 095°03'0 0.0
2018-May-27 13:54N 29°42' W 095°03'0 0.0
2018-May-27 13:27N 29°42' W 095°03'0 0.0
2018-May-27 12:58N 29°42' W 095°03'0 0.0
2018-May-27 09:04N 29°42' W 095°03'0 0.0
2018-May-27 03:18N 29°42' W 095°03'0 0.0
2018-May-27 02:40N 29°42' W 095°03'  

Dump ship's entire track history